sensor_id;sensor_type;location;lat;lon;timestamp;P1;durP1;ratioP1;P2;durP2;ratioP2
69894;SDS011;57172;52.034;5.090;2022-11-15T00:01:42;50.45;;;17.92;;
69894;SDS011;57172;52.034;5.090;2022-11-15T00:04:28;40.38;;;14.32;;
69894;SDS011;57172;52.034;5.090;2022-11-15T00:07:13;54.30;;;17.98;;
69894;SDS011;57172;52.034;5.090;2022-11-15T00:10:19;57.40;;;18.63;;
69894;SDS011;57172;52.034;5.090;2022-11-15T00:13:05;61.00;;;19.05;;
69894;SDS011;57172;52.034;5.090;2022-11-15T00:15:58;58.08;;;16.98;;
69894;SDS011;57172;52.034;5.090;2022-11-15T00:18:46;49.35;;;17.30;;
69894;SDS011;57172;52.034;5.090;2022-11-15T00:21:34;60.70;;;17.83;;
69894;SDS011;57172;52.034;5.090;2022-11-15T00:24:20;68.70;;;19.03;;
69894;SDS011;57172;52.034;5.090;2022-11-15T00:27:05;70.68;;;19.85;;
69894;SDS011;57172;52.034;5.090;2022-11-15T00:29:52;61.42;;;18.80;;
69894;SDS011;57172;52.034;5.090;2022-11-15T00:32:38;62.65;;;18.98;;
69894;SDS011;57172;52.034;5.090;2022-11-15T00:35:23;66.25;;;19.63;;
69894;SDS011;57172;52.034;5.090;2022-11-15T00:38:09;56.03;;;17.73;;
69894;SDS011;57172;52.034;5.090;2022-11-15T00:40:54;51.28;;;16.55;;
69894;SDS011;57172;52.034;5.090;2022-11-15T00:43:40;58.95;;;18.63;;
69894;SDS011;57172;52.034;5.090;2022-11-15T00:46:28;61.53;;;19.02;;
69894;SDS011;57172;52.034;5.090;2022-11-15T00:49:13;60.00;;;19.02;;
69894;SDS011;57172;52.034;5.090;2022-11-15T00:51:59;59.70;;;19.47;;
69894;SDS011;57172;52.034;5.090;2022-11-15T00:54:44;58.88;;;17.88;;
69894;SDS011;57172;52.034;5.090;2022-11-15T00:57:30;55.63;;;19.45;;
69894;SDS011;57172;52.034;5.090;2022-11-15T01:00:15;50.22;;;18.48;;
69894;SDS011;57172;52.034;5.090;2022-11-15T01:03:01;54.75;;;18.58;;
69894;SDS011;57172;52.034;5.090;2022-11-15T01:05:46;66.73;;;19.40;;
69894;SDS011;57172;52.034;5.090;2022-11-15T01:08:32;55.65;;;17.23;;
69894;SDS011;57172;52.034;5.090;2022-11-15T01:11:17;61.15;;;19.38;;
69894;SDS011;57172;52.034;5.090;2022-11-15T01:14:03;66.55;;;19.73;;
69894;SDS011;57172;52.034;5.090;2022-11-15T01:16:48;51.45;;;15.82;;
69894;SDS011;57172;52.034;5.090;2022-11-15T01:19:34;48.03;;;16.23;;
69894;SDS011;57172;52.034;5.090;2022-11-15T01:22:19;69.07;;;18.98;;
69894;SDS011;57172;52.034;5.090;2022-11-15T01:25:05;58.45;;;19.50;;
69894;SDS011;57172;52.034;5.090;2022-11-15T01:27:51;59.13;;;19.45;;
69894;SDS011;57172;52.034;5.090;2022-11-15T01:30:36;64.82;;;19.92;;
69894;SDS011;57172;52.034;5.090;2022-11-15T01:33:21;60.67;;;19.70;;
69894;SDS011;57172;52.034;5.090;2022-11-15T01:36:07;61.47;;;20.20;;
69894;SDS011;57172;52.034;5.090;2022-11-15T01:38:58;64.53;;;20.70;;
69894;SDS011;57172;52.034;5.090;2022-11-15T01:41:43;61.13;;;20.50;;
69894;SDS011;57172;52.034;5.090;2022-11-15T01:47:37;54.83;;;18.03;;
69894;SDS011;57172;52.034;5.090;2022-11-15T01:50:26;51.50;;;16.58;;
69894;SDS011;57172;52.034;5.090;2022-11-15T01:53:15;57.40;;;19.55;;
69894;SDS011;57172;52.034;5.090;2022-11-15T01:56:04;63.42;;;21.63;;
69894;SDS011;57172;52.034;5.090;2022-11-15T01:58:52;58.20;;;20.50;;
69894;SDS011;57172;52.034;5.090;2022-11-15T02:01:41;53.03;;;18.03;;
69894;SDS011;57172;52.034;5.090;2022-11-15T02:04:31;66.72;;;21.55;;
69894;SDS011;57172;52.034;5.090;2022-11-15T02:07:19;49.20;;;18.13;;
69894;SDS011;57172;52.034;5.090;2022-11-15T02:10:08;57.05;;;20.00;;
69894;SDS011;57172;52.034;5.090;2022-11-15T02:12:55;55.50;;;20.70;;
69894;SDS011;57172;52.034;5.090;2022-11-15T02:15:51;46.33;;;18.53;;
69894;SDS011;57172;52.034;5.090;2022-11-15T02:18:59;62.22;;;21.65;;
69894;SDS011;57172;52.034;5.090;2022-11-15T02:38:01;51.45;;;19.60;;
69894;SDS011;57172;52.034;5.090;2022-11-15T02:41:16;54.95;;;20.00;;
69894;SDS011;57172;52.034;5.090;2022-11-15T02:44:23;36.55;;;13.98;;
69894;SDS011;57172;52.034;5.090;2022-11-15T02:47:15;49.00;;;20.13;;
69894;SDS011;57172;52.034;5.090;2022-11-15T02:50:04;44.10;;;16.20;;
69894;SDS011;57172;52.034;5.090;2022-11-15T02:52:53;41.22;;;14.55;;
69894;SDS011;57172;52.034;5.090;2022-11-15T02:55:46;42.78;;;17.50;;
69894;SDS011;57172;52.034;5.090;2022-11-15T03:04:57;46.50;;;18.23;;
69894;SDS011;57172;52.034;5.090;2022-11-15T03:08:09;37.42;;;16.00;;
69894;SDS011;57172;52.034;5.090;2022-11-15T03:19:50;43.65;;;16.17;;
69894;SDS011;57172;52.034;5.090;2022-11-15T03:22:38;39.60;;;13.68;;
69894;SDS011;57172;52.034;5.090;2022-11-15T03:25:27;33.22;;;15.00;;
69894;SDS011;57172;52.034;5.090;2022-11-15T03:28:21;38.70;;;16.75;;
69894;SDS011;57172;52.034;5.090;2022-11-15T03:31:10;46.33;;;18.50;;
69894;SDS011;57172;52.034;5.090;2022-11-15T03:37:24;33.53;;;14.52;;
69894;SDS011;57172;52.034;5.090;2022-11-15T03:40:22;38.58;;;16.45;;
69894;SDS011;57172;52.034;5.090;2022-11-15T03:43:24;36.65;;;14.52;;
69894;SDS011;57172;52.034;5.090;2022-11-15T03:46:32;37.73;;;16.47;;
69894;SDS011;57172;52.034;5.090;2022-11-15T03:49:23;40.90;;;17.50;;
69894;SDS011;57172;52.034;5.090;2022-11-15T03:52:13;33.92;;;15.35;;
69894;SDS011;57172;52.034;5.090;2022-11-15T03:55:03;38.88;;;18.23;;
69894;SDS011;57172;52.034;5.090;2022-11-15T03:57:52;32.65;;;15.00;;
69894;SDS011;57172;52.034;5.090;2022-11-15T04:00:42;37.93;;;17.73;;
69894;SDS011;57172;52.034;5.090;2022-11-15T04:03:28;33.47;;;15.52;;
69894;SDS011;57172;52.034;5.090;2022-11-15T04:06:14;38.85;;;16.15;;
69894;SDS011;57172;52.034;5.090;2022-11-15T04:08:59;35.58;;;15.88;;
69894;SDS011;57172;52.034;5.090;2022-11-15T04:11:45;36.22;;;16.67;;
69894;SDS011;57172;52.034;5.090;2022-11-15T04:14:30;40.97;;;16.97;;
69894;SDS011;57172;52.034;5.090;2022-11-15T04:17:16;38.08;;;15.98;;
69894;SDS011;57172;52.034;5.090;2022-11-15T04:20:02;37.33;;;16.70;;
69894;SDS011;57172;52.034;5.090;2022-11-15T04:26:25;37.97;;;15.88;;
69894;SDS011;57172;52.034;5.090;2022-11-15T04:29:11;33.57;;;15.67;;
69894;SDS011;57172;52.034;5.090;2022-11-15T04:32:15;38.08;;;15.45;;
69894;SDS011;57172;52.034;5.090;2022-11-15T04:35:01;33.10;;;16.63;;
69894;SDS011;57172;52.034;5.090;2022-11-15T04:37:46;40.85;;;17.45;;
69894;SDS011;57172;52.034;5.090;2022-11-15T04:40:34;34.63;;;15.10;;
69894;SDS011;57172;52.034;5.090;2022-11-15T04:43:20;34.23;;;15.97;;
69894;SDS011;57172;52.034;5.090;2022-11-15T04:46:05;31.90;;;15.23;;
69894;SDS011;57172;52.034;5.090;2022-11-15T04:48:51;36.42;;;16.30;;
69894;SDS011;57172;52.034;5.090;2022-11-15T04:51:43;36.10;;;16.50;;
69894;SDS011;57172;52.034;5.090;2022-11-15T04:54:28;26.35;;;13.55;;
69894;SDS011;57172;52.034;5.090;2022-11-15T04:57:14;32.03;;;14.43;;
69894;SDS011;57172;52.034;5.090;2022-11-15T04:59:59;30.13;;;13.85;;
69894;SDS011;57172;52.034;5.090;2022-11-15T05:02:47;24.65;;;12.00;;
69894;SDS011;57172;52.034;5.090;2022-11-15T05:05:51;31.38;;;12.98;;
69894;SDS011;57172;52.034;5.090;2022-11-15T05:08:36;28.75;;;13.88;;
69894;SDS011;57172;52.034;5.090;2022-11-15T05:11:22;30.37;;;13.00;;
69894;SDS011;57172;52.034;5.090;2022-11-15T05:14:08;22.92;;;10.77;;
69894;SDS011;57172;52.034;5.090;2022-11-15T05:16:54;29.98;;;13.32;;
69894;SDS011;57172;52.034;5.090;2022-11-15T05:19:40;21.00;;;10.63;;
69894;SDS011;57172;52.034;5.090;2022-11-15T05:22:25;30.77;;;14.57;;
69894;SDS011;57172;52.034;5.090;2022-11-15T05:25:11;31.50;;;13.87;;
69894;SDS011;57172;52.034;5.090;2022-11-15T05:27:56;26.30;;;12.18;;
69894;SDS011;57172;52.034;5.090;2022-11-15T05:30:42;29.15;;;12.60;;
69894;SDS011;57172;52.034;5.090;2022-11-15T05:33:28;32.00;;;14.73;;
69894;SDS011;57172;52.034;5.090;2022-11-15T05:36:16;27.15;;;13.55;;
69894;SDS011;57172;52.034;5.090;2022-11-15T05:39:22;27.50;;;13.73;;
69894;SDS011;57172;52.034;5.090;2022-11-15T05:42:11;30.35;;;13.40;;
69894;SDS011;57172;52.034;5.090;2022-11-15T05:44:58;21.88;;;9.90;;
69894;SDS011;57172;52.034;5.090;2022-11-15T05:47:47;24.77;;;12.57;;
69894;SDS011;57172;52.034;5.090;2022-11-15T05:50:35;24.45;;;11.20;;
69894;SDS011;57172;52.034;5.090;2022-11-15T05:53:23;18.27;;;9.77;;
69894;SDS011;57172;52.034;5.090;2022-11-15T05:56:10;21.02;;;10.05;;
69894;SDS011;57172;52.034;5.090;2022-11-15T05:58:57;27.95;;;13.82;;
69894;SDS011;57172;52.034;5.090;2022-11-15T06:01:44;20.42;;;10.82;;
69894;SDS011;57172;52.034;5.090;2022-11-15T06:04:29;32.17;;;13.40;;
69894;SDS011;57172;52.034;5.090;2022-11-15T06:07:15;28.27;;;13.50;;
69894;SDS011;57172;52.034;5.090;2022-11-15T06:10:01;26.77;;;13.75;;
69894;SDS011;57172;52.034;5.090;2022-11-15T06:12:46;25.10;;;11.20;;
69894;SDS011;57172;52.034;5.090;2022-11-15T06:15:32;30.52;;;14.75;;
69894;SDS011;57172;52.034;5.090;2022-11-15T06:18:18;32.65;;;15.43;;
69894;SDS011;57172;52.034;5.090;2022-11-15T06:21:04;27.63;;;13.67;;
69894;SDS011;57172;52.034;5.090;2022-11-15T06:23:50;27.45;;;13.90;;
69894;SDS011;57172;52.034;5.090;2022-11-15T06:26:35;25.77;;;12.50;;
69894;SDS011;57172;52.034;5.090;2022-11-15T06:29:21;26.67;;;13.13;;
69894;SDS011;57172;52.034;5.090;2022-11-15T06:32:06;30.67;;;13.48;;
69894;SDS011;57172;52.034;5.090;2022-11-15T06:34:52;23.20;;;11.47;;
69894;SDS011;57172;52.034;5.090;2022-11-15T06:37:38;29.92;;;12.20;;
69894;SDS011;57172;52.034;5.090;2022-11-15T06:40:23;26.85;;;12.30;;
69894;SDS011;57172;52.034;5.090;2022-11-15T06:43:09;23.33;;;11.73;;
69894;SDS011;57172;52.034;5.090;2022-11-15T06:45:54;29.92;;;13.48;;
69894;SDS011;57172;52.034;5.090;2022-11-15T06:48:39;29.40;;;13.47;;
69894;SDS011;57172;52.034;5.090;2022-11-15T06:51:25;29.33;;;13.82;;
69894;SDS011;57172;52.034;5.090;2022-11-15T06:54:10;29.75;;;14.15;;
69894;SDS011;57172;52.034;5.090;2022-11-15T06:56:56;25.75;;;13.07;;
69894;SDS011;57172;52.034;5.090;2022-11-15T06:59:41;27.90;;;13.45;;
69894;SDS011;57172;52.034;5.090;2022-11-15T07:02:27;24.30;;;12.70;;
69894;SDS011;57172;52.034;5.090;2022-11-15T07:05:13;26.20;;;12.80;;
69894;SDS011;57172;52.034;5.090;2022-11-15T07:07:59;24.58;;;11.57;;
69894;SDS011;57172;52.034;5.090;2022-11-15T07:10:44;28.38;;;13.50;;
69894;SDS011;57172;52.034;5.090;2022-11-15T07:13:30;28.67;;;13.32;;
69894;SDS011;57172;52.034;5.090;2022-11-15T07:16:18;24.43;;;12.77;;
69894;SDS011;57172;52.034;5.090;2022-11-15T07:19:04;28.13;;;13.35;;
69894;SDS011;57172;52.034;5.090;2022-11-15T07:21:50;27.42;;;11.55;;
69894;SDS011;57172;52.034;5.090;2022-11-15T07:24:35;30.63;;;12.38;;
69894;SDS011;57172;52.034;5.090;2022-11-15T07:27:21;28.52;;;13.27;;
69894;SDS011;57172;52.034;5.090;2022-11-15T07:30:06;26.77;;;11.43;;
69894;SDS011;57172;52.034;5.090;2022-11-15T07:32:53;32.75;;;13.02;;
69894;SDS011;57172;52.034;5.090;2022-11-15T07:35:39;24.92;;;11.57;;
69894;SDS011;57172;52.034;5.090;2022-11-15T07:38:25;24.90;;;12.05;;
69894;SDS011;57172;52.034;5.090;2022-11-15T07:41:10;24.92;;;11.68;;
69894;SDS011;57172;52.034;5.090;2022-11-15T07:43:56;21.13;;;10.50;;
69894;SDS011;57172;52.034;5.090;2022-11-15T07:46:42;30.50;;;11.88;;
69894;SDS011;57172;52.034;5.090;2022-11-15T07:49:28;24.38;;;11.57;;
69894;SDS011;57172;52.034;5.090;2022-11-15T07:52:13;18.35;;;10.02;;
69894;SDS011;57172;52.034;5.090;2022-11-15T07:54:59;25.40;;;11.50;;
69894;SDS011;57172;52.034;5.090;2022-11-15T07:57:44;23.03;;;11.30;;
69894;SDS011;57172;52.034;5.090;2022-11-15T08:00:30;21.05;;;10.20;;
69894;SDS011;57172;52.034;5.090;2022-11-15T08:03:16;22.27;;;8.68;;
69894;SDS011;57172;52.034;5.090;2022-11-15T08:06:02;20.15;;;10.52;;
69894;SDS011;57172;52.034;5.090;2022-11-15T08:08:48;18.88;;;9.20;;
69894;SDS011;57172;52.034;5.090;2022-11-15T08:11:34;21.63;;;10.13;;
69894;SDS011;57172;52.034;5.090;2022-11-15T08:14:19;20.00;;;8.88;;
69894;SDS011;57172;52.034;5.090;2022-11-15T08:17:06;17.55;;;8.55;;
69894;SDS011;57172;52.034;5.090;2022-11-15T08:19:52;17.20;;;8.55;;
69894;SDS011;57172;52.034;5.090;2022-11-15T08:22:38;20.33;;;9.30;;
69894;SDS011;57172;52.034;5.090;2022-11-15T08:25:23;28.67;;;13.00;;
69894;SDS011;57172;52.034;5.090;2022-11-15T08:28:15;35.22;;;14.73;;
69894;SDS011;57172;52.034;5.090;2022-11-15T08:31:02;23.60;;;10.23;;
69894;SDS011;57172;52.034;5.090;2022-11-15T08:33:48;18.42;;;7.60;;
69894;SDS011;57172;52.034;5.090;2022-11-15T08:36:33;27.95;;;9.98;;
69894;SDS011;57172;52.034;5.090;2022-11-15T08:39:29;18.17;;;7.63;;
69894;SDS011;57172;52.034;5.090;2022-11-15T08:42:15;33.70;;;13.15;;
69894;SDS011;57172;52.034;5.090;2022-11-15T08:45:04;32.92;;;11.88;;
69894;SDS011;57172;52.034;5.090;2022-11-15T08:47:50;27.23;;;9.48;;
69894;SDS011;57172;52.034;5.090;2022-11-15T08:50:38;17.13;;;7.72;;
69894;SDS011;57172;52.034;5.090;2022-11-15T08:53:23;13.73;;;5.97;;
69894;SDS011;57172;52.034;5.090;2022-11-15T08:56:09;14.80;;;7.00;;
69894;SDS011;57172;52.034;5.090;2022-11-15T08:58:56;18.83;;;7.32;;
69894;SDS011;57172;52.034;5.090;2022-11-15T09:01:41;14.13;;;6.75;;
69894;SDS011;57172;52.034;5.090;2022-11-15T09:04:27;59.05;;;18.70;;
69894;SDS011;57172;52.034;5.090;2022-11-15T09:07:13;25.83;;;9.90;;
69894;SDS011;57172;52.034;5.090;2022-11-15T09:09:58;25.15;;;10.73;;
69894;SDS011;57172;52.034;5.090;2022-11-15T09:12:44;50.08;;;17.60;;
69894;SDS011;57172;52.034;5.090;2022-11-15T09:15:33;19.23;;;8.32;;
69894;SDS011;57172;52.034;5.090;2022-11-15T09:18:18;24.95;;;11.60;;
69894;SDS011;57172;52.034;5.090;2022-11-15T09:21:06;12.07;;;6.43;;
69894;SDS011;57172;52.034;5.090;2022-11-15T09:23:52;20.25;;;10.02;;
69894;SDS011;57172;52.034;5.090;2022-11-15T09:26:38;12.82;;;6.85;;
69894;SDS011;57172;52.034;5.090;2022-11-15T09:29:24;31.33;;;12.68;;
69894;SDS011;57172;52.034;5.090;2022-11-15T09:32:09;15.70;;;8.82;;
69894;SDS011;57172;52.034;5.090;2022-11-15T09:34:55;12.33;;;6.63;;
69894;SDS011;57172;52.034;5.090;2022-11-15T09:37:41;24.50;;;11.75;;
69894;SDS011;57172;52.034;5.090;2022-11-15T09:40:26;16.65;;;7.25;;
69894;SDS011;57172;52.034;5.090;2022-11-15T09:43:23;19.13;;;8.52;;
69894;SDS011;57172;52.034;5.090;2022-11-15T09:49:15;11.97;;;5.67;;
69894;SDS011;57172;52.034;5.090;2022-11-15T09:52:12;28.67;;;12.18;;
69894;SDS011;57172;52.034;5.090;2022-11-15T09:54:48;18.40;;;9.43;;
69894;SDS011;57172;52.034;5.090;2022-11-15T09:57:37;16.50;;;7.53;;
69894;SDS011;57172;52.034;5.090;2022-11-15T10:00:18;10.48;;;5.63;;
69894;SDS011;57172;52.034;5.090;2022-11-15T10:03:18;12.20;;;5.37;;
69894;SDS011;57172;52.034;5.090;2022-11-15T10:05:53;28.90;;;12.32;;
69894;SDS011;57172;52.034;5.090;2022-11-15T10:08:30;12.20;;;5.70;;
69894;SDS011;57172;52.034;5.090;2022-11-15T10:11:15;8.93;;;4.97;;
69894;SDS011;57172;52.034;5.090;2022-11-15T10:14:15;9.93;;;5.55;;
69894;SDS011;57172;52.034;5.090;2022-11-15T10:22:38;22.63;;;10.00;;
69894;SDS011;57172;52.034;5.090;2022-11-15T10:25:12;12.52;;;6.55;;
69894;SDS011;57172;52.034;5.090;2022-11-15T10:27:57;27.17;;;13.43;;
69894;SDS011;57172;52.034;5.090;2022-11-15T10:30:35;30.57;;;13.73;;
69894;SDS011;57172;52.034;5.090;2022-11-15T10:33:24;14.80;;;6.97;;
69894;SDS011;57172;52.034;5.090;2022-11-15T10:39:10;9.88;;;4.95;;
69894;SDS011;57172;52.034;5.090;2022-11-15T10:46:44;19.50;;;8.55;;
69894;SDS011;57172;52.034;5.090;2022-11-15T10:49:16;20.98;;;9.82;;
69894;SDS011;57172;52.034;5.090;2022-11-15T10:51:57;10.07;;;4.60;;
69894;SDS011;57172;52.034;5.090;2022-11-15T10:54:33;36.47;;;17.17;;
69894;SDS011;57172;52.034;5.090;2022-11-15T10:57:26;25.17;;;14.13;;
69894;SDS011;57172;52.034;5.090;2022-11-15T11:00:04;22.27;;;11.60;;
69894;SDS011;57172;52.034;5.090;2022-11-15T11:07:58;6.70;;;3.50;;
69894;SDS011;57172;52.034;5.090;2022-11-15T11:10:30;16.40;;;7.77;;
69894;SDS011;57172;52.034;5.090;2022-11-15T11:13:22;14.50;;;7.38;;
69894;SDS011;57172;52.034;5.090;2022-11-15T11:16:06;18.42;;;7.55;;
69894;SDS011;57172;52.034;5.090;2022-11-15T11:22:12;23.15;;;9.70;;
69894;SDS011;57172;52.034;5.090;2022-11-15T11:32:49;40.45;;;10.10;;
69894;SDS011;57172;52.034;5.090;2022-11-15T11:35:26;25.10;;;8.32;;
69894;SDS011;57172;52.034;5.090;2022-11-15T11:37:59;13.83;;;6.30;;
69894;SDS011;57172;52.034;5.090;2022-11-15T11:40:51;11.98;;;6.57;;
69894;SDS011;57172;52.034;5.090;2022-11-15T11:43:41;9.35;;;4.28;;
69894;SDS011;57172;52.034;5.090;2022-11-15T11:49:18;31.50;;;13.30;;
69894;SDS011;57172;52.034;5.090;2022-11-15T11:57:14;10.35;;;3.20;;
69894;SDS011;57172;52.034;5.090;2022-11-15T12:02:38;6.13;;;2.47;;
69894;SDS011;57172;52.034;5.090;2022-11-15T12:07:54;5.43;;;1.80;;
69894;SDS011;57172;52.034;5.090;2022-11-15T12:10:57;6.22;;;1.98;;
69894;SDS011;57172;52.034;5.090;2022-11-15T12:13:32;8.13;;;1.83;;
69894;SDS011;57172;52.034;5.090;2022-11-15T12:16:15;6.65;;;1.85;;
69894;SDS011;57172;52.034;5.090;2022-11-15T12:18:50;6.40;;;1.80;;
69894;SDS011;57172;52.034;5.090;2022-11-15T12:21:26;4.35;;;1.50;;
69894;SDS011;57172;52.034;5.090;2022-11-15T12:24:16;8.05;;;1.90;;
69894;SDS011;57172;52.034;5.090;2022-11-15T12:26:52;4.85;;;1.73;;
69894;SDS011;57172;52.034;5.090;2022-11-15T12:29:42;5.78;;;1.85;;
69894;SDS011;57172;52.034;5.090;2022-11-15T12:32:18;5.93;;;1.63;;
69894;SDS011;57172;52.034;5.090;2022-11-15T12:34:57;4.88;;;1.60;;
69894;SDS011;57172;52.034;5.090;2022-11-15T12:37:33;5.72;;;1.60;;
69894;SDS011;57172;52.034;5.090;2022-11-15T12:40:14;5.65;;;1.60;;
69894;SDS011;57172;52.034;5.090;2022-11-15T12:45:41;6.70;;;1.60;;
69894;SDS011;57172;52.034;5.090;2022-11-15T12:56:17;6.63;;;1.90;;
69894;SDS011;57172;52.034;5.090;2022-11-15T13:12:07;4.30;;;1.47;;
69894;SDS011;57172;52.034;5.090;2022-11-15T13:15:07;4.82;;;1.50;;
69894;SDS011;57172;52.034;5.090;2022-11-15T13:22:43;5.68;;;1.63;;
69894;SDS011;57172;52.034;5.090;2022-11-15T13:28:10;6.82;;;1.70;;
69894;SDS011;57172;52.034;5.090;2022-11-15T13:33:14;3.38;;;1.42;;
69894;SDS011;57172;52.034;5.090;2022-11-15T13:35:45;4.90;;;1.63;;
69894;SDS011;57172;52.034;5.090;2022-11-15T13:38:19;6.67;;;1.70;;
69894;SDS011;57172;52.034;5.090;2022-11-15T13:40:52;5.10;;;1.60;;
69894;SDS011;57172;52.034;5.090;2022-11-15T13:48:56;5.75;;;1.92;;
69894;SDS011;57172;52.034;5.090;2022-11-15T13:56:40;5.28;;;1.70;;
69894;SDS011;57172;52.034;5.090;2022-11-15T13:59:30;4.43;;;1.50;;
69894;SDS011;57172;52.034;5.090;2022-11-15T14:02:01;6.05;;;1.60;;
69894;SDS011;57172;52.034;5.090;2022-11-15T14:04:37;8.50;;;1.70;;
69894;SDS011;57172;52.034;5.090;2022-11-15T14:07:15;5.00;;;1.77;;
69894;SDS011;57172;52.034;5.090;2022-11-15T14:09:45;6.15;;;2.00;;
69894;SDS011;57172;52.034;5.090;2022-11-15T14:12:22;4.60;;;1.50;;
69894;SDS011;57172;52.034;5.090;2022-11-15T14:15:02;5.40;;;2.03;;
69894;SDS011;57172;52.034;5.090;2022-11-15T14:17:45;9.20;;;1.93;;
69894;SDS011;57172;52.034;5.090;2022-11-15T14:20:20;5.47;;;1.90;;
69894;SDS011;57172;52.034;5.090;2022-11-15T14:22:54;8.07;;;2.20;;
69894;SDS011;57172;52.034;5.090;2022-11-15T14:25:23;5.80;;;2.10;;
69894;SDS011;57172;52.034;5.090;2022-11-15T14:30:59;4.00;;;2.13;;
69894;SDS011;57172;52.034;5.090;2022-11-15T14:33:27;6.28;;;2.10;;
69894;SDS011;57172;52.034;5.090;2022-11-15T14:36:12;6.65;;;2.20;;
69894;SDS011;57172;52.034;5.090;2022-11-15T14:38:39;4.95;;;2.08;;
69894;SDS011;57172;52.034;5.090;2022-11-15T14:41:10;7.35;;;2.00;;
69894;SDS011;57172;52.034;5.090;2022-11-15T14:43:49;6.20;;;2.57;;
69894;SDS011;57172;52.034;5.090;2022-11-15T14:46:17;4.93;;;2.22;;
69894;SDS011;57172;52.034;5.090;2022-11-15T14:48:44;6.03;;;2.10;;
69894;SDS011;57172;52.034;5.090;2022-11-15T14:51:11;8.10;;;2.10;;
69894;SDS011;57172;52.034;5.090;2022-11-15T14:53:40;6.10;;;1.90;;
69894;SDS011;57172;52.034;5.090;2022-11-15T14:56:08;8.13;;;2.10;;
69894;SDS011;57172;52.034;5.090;2022-11-15T14:58:35;4.88;;;1.75;;
69894;SDS011;57172;52.034;5.090;2022-11-15T15:01:03;5.07;;;1.95;;
69894;SDS011;57172;52.034;5.090;2022-11-15T15:03:44;5.65;;;2.10;;
69894;SDS011;57172;52.034;5.090;2022-11-15T15:06:11;4.82;;;1.80;;
69894;SDS011;57172;52.034;5.090;2022-11-15T15:08:43;6.60;;;1.80;;
69894;SDS011;57172;52.034;5.090;2022-11-15T15:11:30;3.90;;;1.90;;
69894;SDS011;57172;52.034;5.090;2022-11-15T15:13:57;5.78;;;2.10;;
69894;SDS011;57172;52.034;5.090;2022-11-15T15:16:25;7.38;;;1.90;;
69894;SDS011;57172;52.034;5.090;2022-11-15T15:18:52;8.23;;;1.90;;
69894;SDS011;57172;52.034;5.090;2022-11-15T15:21:20;5.43;;;1.93;;
69894;SDS011;57172;52.034;5.090;2022-11-15T15:23:50;5.05;;;1.73;;
69894;SDS011;57172;52.034;5.090;2022-11-15T15:26:17;4.50;;;1.90;;
69894;SDS011;57172;52.034;5.090;2022-11-15T15:28:44;8.60;;;1.70;;
69894;SDS011;57172;52.034;5.090;2022-11-15T15:31:11;4.50;;;1.92;;
69894;SDS011;57172;52.034;5.090;2022-11-15T15:33:37;4.00;;;1.80;;
69894;SDS011;57172;52.034;5.090;2022-11-15T15:36:04;5.15;;;2.05;;
69894;SDS011;57172;52.034;5.090;2022-11-15T15:38:31;4.15;;;1.67;;
69894;SDS011;57172;52.034;5.090;2022-11-15T15:40:59;3.92;;;1.77;;
69894;SDS011;57172;52.034;5.090;2022-11-15T15:43:28;5.82;;;2.00;;
69894;SDS011;57172;52.034;5.090;2022-11-15T15:45:54;3.67;;;1.80;;
69894;SDS011;57172;52.034;5.090;2022-11-15T15:48:21;4.90;;;1.90;;
69894;SDS011;57172;52.034;5.090;2022-11-15T15:50:48;7.25;;;2.00;;
69894;SDS011;57172;52.034;5.090;2022-11-15T15:53:15;6.07;;;1.65;;
69894;SDS011;57172;52.034;5.090;2022-11-15T15:55:43;4.70;;;1.70;;
69894;SDS011;57172;52.034;5.090;2022-11-15T15:58:10;7.70;;;1.80;;
69894;SDS011;57172;52.034;5.090;2022-11-15T16:00:37;5.78;;;1.65;;
69894;SDS011;57172;52.034;5.090;2022-11-15T16:03:04;7.00;;;2.05;;
69894;SDS011;57172;52.034;5.090;2022-11-15T16:05:31;4.95;;;1.83;;
69894;SDS011;57172;52.034;5.090;2022-11-15T16:07:58;6.63;;;1.85;;
69894;SDS011;57172;52.034;5.090;2022-11-15T16:10:26;4.83;;;1.80;;
69894;SDS011;57172;52.034;5.090;2022-11-15T16:12:56;6.53;;;1.80;;
69894;SDS011;57172;52.034;5.090;2022-11-15T16:15:25;6.88;;;1.98;;
69894;SDS011;57172;52.034;5.090;2022-11-15T16:17:56;4.35;;;1.92;;
69894;SDS011;57172;52.034;5.090;2022-11-15T16:20:40;5.35;;;1.90;;
69894;SDS011;57172;52.034;5.090;2022-11-15T16:23:12;4.33;;;1.90;;
69894;SDS011;57172;52.034;5.090;2022-11-15T16:25:49;5.90;;;2.08;;
69894;SDS011;57172;52.034;5.090;2022-11-15T16:30:59;10.35;;;2.00;;
69894;SDS011;57172;52.034;5.090;2022-11-15T16:33:26;4.63;;;1.90;;
69894;SDS011;57172;52.034;5.090;2022-11-15T16:35:52;7.20;;;2.40;;
69894;SDS011;57172;52.034;5.090;2022-11-15T16:38:19;5.80;;;2.10;;
69894;SDS011;57172;52.034;5.090;2022-11-15T16:40:46;4.38;;;2.00;;
69894;SDS011;57172;52.034;5.090;2022-11-15T16:43:13;6.00;;;2.35;;
69894;SDS011;57172;52.034;5.090;2022-11-15T16:45:40;4.03;;;2.10;;
69894;SDS011;57172;52.034;5.090;2022-11-15T16:48:09;5.67;;;2.27;;
69894;SDS011;57172;52.034;5.090;2022-11-15T16:50:55;5.60;;;2.10;;
69894;SDS011;57172;52.034;5.090;2022-11-15T16:53:23;7.00;;;2.30;;
69894;SDS011;57172;52.034;5.090;2022-11-15T16:55:50;7.50;;;2.50;;
69894;SDS011;57172;52.034;5.090;2022-11-15T16:58:17;8.20;;;2.45;;
69894;SDS011;57172;52.034;5.090;2022-11-15T17:00:44;4.60;;;2.33;;
69894;SDS011;57172;52.034;5.090;2022-11-15T17:03:11;5.78;;;2.65;;
69894;SDS011;57172;52.034;5.090;2022-11-15T17:05:38;8.93;;;2.53;;
69894;SDS011;57172;52.034;5.090;2022-11-15T17:08:05;7.68;;;2.38;;
69894;SDS011;57172;52.034;5.090;2022-11-15T17:10:31;5.68;;;2.50;;
69894;SDS011;57172;52.034;5.090;2022-11-15T17:13:01;6.73;;;2.70;;
69894;SDS011;57172;52.034;5.090;2022-11-15T17:15:28;6.22;;;2.40;;
69894;SDS011;57172;52.034;5.090;2022-11-15T17:17:55;7.25;;;2.83;;
69894;SDS011;57172;52.034;5.090;2022-11-15T17:20:22;6.53;;;2.60;;
69894;SDS011;57172;52.034;5.090;2022-11-15T17:22:50;8.38;;;2.60;;
69894;SDS011;57172;52.034;5.090;2022-11-15T17:25:18;6.27;;;2.70;;
69894;SDS011;57172;52.034;5.090;2022-11-15T17:27:45;8.18;;;2.92;;
69894;SDS011;57172;52.034;5.090;2022-11-15T17:30:12;6.03;;;2.83;;
69894;SDS011;57172;52.034;5.090;2022-11-15T17:32:41;6.88;;;2.65;;
69894;SDS011;57172;52.034;5.090;2022-11-15T17:35:09;6.68;;;2.70;;
69894;SDS011;57172;52.034;5.090;2022-11-15T17:37:41;10.30;;;3.20;;
69894;SDS011;57172;52.034;5.090;2022-11-15T17:40:08;7.22;;;3.25;;
69894;SDS011;57172;52.034;5.090;2022-11-15T17:42:36;8.40;;;3.58;;
69894;SDS011;57172;52.034;5.090;2022-11-15T17:45:05;9.07;;;3.60;;
69894;SDS011;57172;52.034;5.090;2022-11-15T17:47:35;10.80;;;5.35;;
69894;SDS011;57172;52.034;5.090;2022-11-15T17:50:02;8.80;;;3.87;;
69894;SDS011;57172;52.034;5.090;2022-11-15T17:52:29;11.68;;;4.82;;
69894;SDS011;57172;52.034;5.090;2022-11-15T17:54:56;9.35;;;4.57;;
69894;SDS011;57172;52.034;5.090;2022-11-15T17:57:23;8.63;;;4.22;;
69894;SDS011;57172;52.034;5.090;2022-11-15T17:59:50;10.15;;;4.65;;
69894;SDS011;57172;52.034;5.090;2022-11-15T18:02:17;10.37;;;4.37;;
69894;SDS011;57172;52.034;5.090;2022-11-15T18:04:44;10.63;;;4.35;;
69894;SDS011;57172;52.034;5.090;2022-11-15T18:07:11;9.63;;;4.30;;
69894;SDS011;57172;52.034;5.090;2022-11-15T18:09:39;9.35;;;4.43;;
69894;SDS011;57172;52.034;5.090;2022-11-15T18:12:09;17.00;;;5.78;;
69894;SDS011;57172;52.034;5.090;2022-11-15T18:14:37;13.43;;;5.47;;
69894;SDS011;57172;52.034;5.090;2022-11-15T18:17:04;9.55;;;4.65;;